sensor_id;sensor_type;location;lat;lon;timestamp;pressure;altitude;pressure_sealevel;temperature;humidity
59103;BME280;43999;51.660;5.616;2023-01-27T00:01:16;102251.09;;;4.10;100.00
59103;BME280;43999;51.660;5.616;2023-01-27T00:03:53;102246.81;;;4.06;100.00
59103;BME280;43999;51.660;5.616;2023-01-27T00:06:29;102239.88;;;4.04;100.00
59103;BME280;43999;51.660;5.616;2023-01-27T00:08:57;102244.22;;;4.03;100.00
59103;BME280;43999;51.660;5.616;2023-01-27T00:11:33;102239.88;;;4.04;100.00
59103;BME280;43999;51.660;5.616;2023-01-27T00:14:20;102235.56;;;4.03;100.00
59103;BME280;43999;51.660;5.616;2023-01-27T00:16:48;102246.81;;;4.05;100.00
59103;BME280;43999;51.660;5.616;2023-01-27T00:19:17;102252.00;;;4.02;100.00
59103;BME280;43999;51.660;5.616;2023-01-27T00:21:46;102244.22;;;3.99;100.00
59103;BME280;43999;51.660;5.616;2023-01-27T00:24:34;102247.69;;;3.96;100.00
59103;BME280;43999;51.660;5.616;2023-01-27T00:27:06;102252.03;;;3.97;100.00
59103;BME280;43999;51.660;5.616;2023-01-27T00:29:40;102247.69;;;3.99;100.00
59103;BME280;43999;51.660;5.616;2023-01-27T00:32:09;102245.09;;;3.99;100.00
59103;BME280;43999;51.660;5.616;2023-01-27T00:34:57;102254.63;;;3.94;100.00
59103;BME280;43999;51.660;5.616;2023-01-27T00:37:26;102246.00;;;3.90;100.00
59103;BME280;43999;51.660;5.616;2023-01-27T00:40:00;102252.91;;;3.88;100.00
59103;BME280;43999;51.660;5.616;2023-01-27T00:42:28;102249.47;;;3.86;100.00
59103;BME280;43999;51.660;5.616;2023-01-27T00:44:56;102246.03;;;3.86;100.00
59103;BME280;43999;51.660;5.616;2023-01-27T00:47:43;102248.63;;;3.83;100.00
59103;BME280;43999;51.660;5.616;2023-01-27T00:50:13;102256.41;;;3.86;100.00
59103;BME280;43999;51.660;5.616;2023-01-27T00:52:43;102258.09;;;3.87;100.00
59103;BME280;43999;51.660;5.616;2023-01-27T00:55:12;102266.78;;;3.84;100.00
59103;BME280;43999;51.660;5.616;2023-01-27T00:57:43;102257.25;;;3.86;100.00
59103;BME280;43999;51.660;5.616;2023-01-27T01:00:14;102258.13;;;3.81;100.00
59103;BME280;43999;51.660;5.616;2023-01-27T01:02:42;102258.13;;;3.82;100.00
59103;BME280;43999;51.660;5.616;2023-01-27T01:05:10;102266.78;;;3.86;100.00
59103;BME280;43999;51.660;5.616;2023-01-27T01:07:40;102267.66;;;3.77;100.00
59103;BME280;43999;51.660;5.616;2023-01-27T01:10:09;102256.41;;;3.76;100.00
59103;BME280;43999;51.660;5.616;2023-01-27T01:12:38;102268.50;;;3.70;100.00
59103;BME280;43999;51.660;5.616;2023-01-27T01:15:07;102263.31;;;3.71;100.00
59103;BME280;43999;51.660;5.616;2023-01-27T01:17:43;102267.66;;;3.68;100.00
59103;BME280;43999;51.660;5.616;2023-01-27T01:20:11;102278.88;;;3.70;100.00
59103;BME280;43999;51.660;5.616;2023-01-27T01:22:41;102268.53;;;3.64;100.00
59103;BME280;43999;51.660;5.616;2023-01-27T01:25:10;102270.28;;;3.57;100.00
59103;BME280;43999;51.660;5.616;2023-01-27T01:27:49;102273.72;;;3.51;100.00
59103;BME280;43999;51.660;5.616;2023-01-27T01:30:23;102276.31;;;3.51;100.00
59103;BME280;43999;51.660;5.616;2023-01-27T01:32:57;102280.66;;;3.51;100.00
59103;BME280;43999;51.660;5.616;2023-01-27T01:35:26;102283.25;;;3.49;100.00
59103;BME280;43999;51.660;5.616;2023-01-27T01:37:53;102282.38;;;3.53;100.00
59103;BME280;43999;51.660;5.616;2023-01-27T01:40:23;102287.56;;;3.53;100.00
59103;BME280;43999;51.660;5.616;2023-01-27T01:42:58;102283.25;;;3.48;100.00
59103;BME280;43999;51.660;5.616;2023-01-27T01:48:09;102283.25;;;3.51;100.00
59103;BME280;43999;51.660;5.616;2023-01-27T01:50:44;102284.09;;;3.48;100.00
59103;BME280;43999;51.660;5.616;2023-01-27T01:53:13;102285.00;;;3.47;100.00
59103;BME280;43999;51.660;5.616;2023-01-27T01:55:42;102281.50;;;3.48;100.00
59103;BME280;43999;51.660;5.616;2023-01-27T01:58:11;102291.03;;;3.46;100.00
59103;BME280;43999;51.660;5.616;2023-01-27T02:00:39;102285.84;;;3.48;100.00
59103;BME280;43999;51.660;5.616;2023-01-27T02:03:23;102282.38;;;3.52;100.00
59103;BME280;43999;51.660;5.616;2023-01-27T02:05:55;102281.50;;;3.50;100.00
59103;BME280;43999;51.660;5.616;2023-01-27T02:08:41;102285.00;;;3.44;100.00
59103;BME280;43999;51.660;5.616;2023-01-27T02:11:12;102285.84;;;3.48;100.00
59103;BME280;43999;51.660;5.616;2023-01-27T02:13:41;102278.06;;;3.46;100.00
59103;BME280;43999;51.660;5.616;2023-01-27T02:16:10;102285.84;;;3.43;100.00
59103;BME280;43999;51.660;5.616;2023-01-27T02:18:41;102285.00;;;3.43;100.00
59103;BME280;43999;51.660;5.616;2023-01-27T02:21:10;102278.91;;;3.50;100.00
59103;BME280;43999;51.660;5.616;2023-01-27T02:23:57;102297.94;;;3.46;100.00
59103;BME280;43999;51.660;5.616;2023-01-27T02:26:42;102297.06;;;3.45;100.00
59103;BME280;43999;51.660;5.616;2023-01-27T02:29:15;102291.88;;;3.44;100.00
59103;BME280;43999;51.660;5.616;2023-01-27T02:31:53;102297.94;;;3.46;100.00
59103;BME280;43999;51.660;5.616;2023-01-27T02:34:28;102303.13;;;3.41;100.00
59103;BME280;43999;51.660;5.616;2023-01-27T02:37:04;102304.00;;;3.37;100.00
59103;BME280;43999;51.660;5.616;2023-01-27T02:39:39;102307.44;;;3.40;100.00
59103;BME280;43999;51.660;5.616;2023-01-27T02:42:13;102308.31;;;3.41;100.00
59103;BME280;43999;51.660;5.616;2023-01-27T02:44:45;102308.31;;;3.38;100.00
59103;BME280;43999;51.660;5.616;2023-01-27T02:47:18;102307.44;;;3.34;100.00
59103;BME280;43999;51.660;5.616;2023-01-27T02:49:48;102311.75;;;3.32;100.00
59103;BME280;43999;51.660;5.616;2023-01-27T02:52:24;102312.59;;;3.37;100.00
59103;BME280;43999;51.660;5.616;2023-01-27T02:54:56;102311.75;;;3.43;100.00
59103;BME280;43999;51.660;5.616;2023-01-27T02:57:23;102305.72;;;3.44;100.00
59103;BME280;43999;51.660;5.616;2023-01-27T03:00:09;102291.88;;;3.56;100.00
59103;BME280;43999;51.660;5.616;2023-01-27T03:02:40;102303.97;;;3.52;100.00
59103;BME280;43999;51.660;5.616;2023-01-27T03:05:08;102305.72;;;3.47;100.00
59103;BME280;43999;51.660;5.616;2023-01-27T03:07:38;102304.84;;;3.42;100.00
59103;BME280;43999;51.660;5.616;2023-01-27T03:10:20;102305.72;;;3.36;100.00
59103;BME280;43999;51.660;5.616;2023-01-27T03:12:50;102309.16;;;3.41;100.00
59103;BME280;43999;51.660;5.616;2023-01-27T03:15:19;102308.31;;;3.43;100.00
59103;BME280;43999;51.660;5.616;2023-01-27T03:18:08;102312.59;;;3.50;100.00
59103;BME280;43999;51.660;5.616;2023-01-27T03:20:46;102317.78;;;3.45;100.00
59103;BME280;43999;51.660;5.616;2023-01-27T03:23:18;102311.75;;;3.43;100.00
59103;BME280;43999;51.660;5.616;2023-01-27T03:25:50;102310.91;;;3.41;100.00
59103;BME280;43999;51.660;5.616;2023-01-27T03:28:19;102308.31;;;3.39;100.00
59103;BME280;43999;51.660;5.616;2023-01-27T03:31:21;102321.28;;;3.39;100.00
59103;BME280;43999;51.660;5.616;2023-01-27T03:34:01;102317.78;;;3.45;100.00
59103;BME280;43999;51.660;5.616;2023-01-27T03:36:41;102320.38;;;3.44;100.00
59103;BME280;43999;51.660;5.616;2023-01-27T03:39:29;102333.34;;;3.39;100.00
59103;BME280;43999;51.660;5.616;2023-01-27T03:42:18;102330.75;;;3.36;100.00
59103;BME280;43999;51.660;5.616;2023-01-27T03:45:08;102328.16;;;3.36;100.00
59103;BME280;43999;51.660;5.616;2023-01-27T03:47:55;102330.75;;;3.34;100.00
59103;BME280;43999;51.660;5.616;2023-01-27T03:50:24;102341.13;;;3.36;100.00
59103;BME280;43999;51.660;5.616;2023-01-27T03:53:05;102338.53;;;3.34;100.00
59103;BME280;43999;51.660;5.616;2023-01-27T03:55:38;102349.78;;;3.33;100.00
59103;BME280;43999;51.660;5.616;2023-01-27T03:58:30;102352.38;;;3.33;100.00
59103;BME280;43999;51.660;5.616;2023-01-27T04:01:04;102339.41;;;3.30;100.00
59103;BME280;43999;51.660;5.616;2023-01-27T04:03:34;102355.81;;;3.34;100.00
59103;BME280;43999;51.660;5.616;2023-01-27T04:06:32;102349.78;;;3.44;100.00
59103;BME280;43999;51.660;5.616;2023-01-27T04:09:28;102346.28;;;3.37;100.00
59103;BME280;43999;51.660;5.616;2023-01-27T04:12:00;102344.59;;;3.33;100.00
59103;BME280;43999;51.660;5.616;2023-01-27T04:14:44;102347.19;;;3.33;100.00
59103;BME280;43999;51.660;5.616;2023-01-27T04:17:18;102346.28;;;3.33;100.00
59103;BME280;43999;51.660;5.616;2023-01-27T04:19:54;102343.72;;;3.45;100.00
59103;BME280;43999;51.660;5.616;2023-01-27T04:22:25;102338.53;;;3.42;100.00
59103;BME280;43999;51.660;5.616;2023-01-27T04:24:54;102334.22;;;3.36;100.00
59103;BME280;43999;51.660;5.616;2023-01-27T04:27:24;102342.00;;;3.33;100.00
59103;BME280;43999;51.660;5.616;2023-01-27T04:29:53;102333.34;;;3.40;100.00
59103;BME280;43999;51.660;5.616;2023-01-27T04:32:24;102337.66;;;3.41;100.00
59103;BME280;43999;51.660;5.616;2023-01-27T04:35:08;102334.22;;;3.43;100.00
59103;BME280;43999;51.660;5.616;2023-01-27T04:38:00;102353.22;;;3.34;100.00
59103;BME280;43999;51.660;5.616;2023-01-27T04:40:30;102345.44;;;3.35;100.00
59103;BME280;43999;51.660;5.616;2023-01-27T04:42:58;102357.53;;;3.36;100.00
59103;BME280;43999;51.660;5.616;2023-01-27T04:45:27;102349.78;;;3.35;100.00
59103;BME280;43999;51.660;5.616;2023-01-27T04:47:57;102354.97;;;3.44;100.00
59103;BME280;43999;51.660;5.616;2023-01-27T04:50:25;102356.66;;;3.40;100.00
59103;BME280;43999;51.660;5.616;2023-01-27T04:52:56;102365.31;;;3.33;100.00
59103;BME280;43999;51.660;5.616;2023-01-27T04:55:27;102362.72;;;3.30;100.00
59103;BME280;43999;51.660;5.616;2023-01-27T04:57:55;102362.72;;;3.36;100.00
59103;BME280;43999;51.660;5.616;2023-01-27T05:00:23;102359.25;;;3.30;100.00
59103;BME280;43999;51.660;5.616;2023-01-27T05:02:51;102361.00;;;3.37;100.00
59103;BME280;43999;51.660;5.616;2023-01-27T05:05:22;102362.72;;;3.33;100.00
59103;BME280;43999;51.660;5.616;2023-01-27T05:07:49;102362.72;;;3.36;100.00
59103;BME280;43999;51.660;5.616;2023-01-27T05:10:18;102364.44;;;3.36;100.00
59103;BME280;43999;51.660;5.616;2023-01-27T05:12:47;102368.75;;;3.35;100.00
59103;BME280;43999;51.660;5.616;2023-01-27T05:15:17;102373.94;;;3.34;100.00
59103;BME280;43999;51.660;5.616;2023-01-27T05:17:44;102371.34;;;3.40;100.00
59103;BME280;43999;51.660;5.616;2023-01-27T05:20:12;102366.19;;;3.46;100.00
59103;BME280;43999;51.660;5.616;2023-01-27T05:22:40;102366.19;;;3.48;100.00
59103;BME280;43999;51.660;5.616;2023-01-27T05:25:10;102367.03;;;3.47;100.00
59103;BME280;43999;51.660;5.616;2023-01-27T05:27:41;102375.69;;;3.49;100.00
59103;BME280;43999;51.660;5.616;2023-01-27T05:30:09;102377.41;;;3.44;100.00
59103;BME280;43999;51.660;5.616;2023-01-27T05:32:37;102382.59;;;3.51;100.00
59103;BME280;43999;51.660;5.616;2023-01-27T05:35:07;102381.72;;;3.52;100.00
59103;BME280;43999;51.660;5.616;2023-01-27T05:37:35;102383.47;;;3.44;100.00
59103;BME280;43999;51.660;5.616;2023-01-27T05:40:12;102385.16;;;3.45;100.00
59103;BME280;43999;51.660;5.616;2023-01-27T05:42:41;102375.69;;;3.44;100.00
59103;BME280;43999;51.660;5.616;2023-01-27T05:45:09;102388.66;;;3.46;100.00
59103;BME280;43999;51.660;5.616;2023-01-27T05:47:38;102386.91;;;3.43;100.00
59103;BME280;43999;51.660;5.616;2023-01-27T05:50:07;102388.66;;;3.44;100.00
59103;BME280;43999;51.660;5.616;2023-01-27T05:52:36;102387.75;;;3.44;100.00
59103;BME280;43999;51.660;5.616;2023-01-27T05:55:04;102405.91;;;3.45;100.00
59103;BME280;43999;51.660;5.616;2023-01-27T05:57:39;102392.94;;;3.45;100.00
59103;BME280;43999;51.660;5.616;2023-01-27T06:00:09;102400.72;;;3.50;100.00
59103;BME280;43999;51.660;5.616;2023-01-27T06:02:45;102407.66;;;3.48;100.00
59103;BME280;43999;51.660;5.616;2023-01-27T06:05:20;102400.72;;;3.47;100.00
59103;BME280;43999;51.660;5.616;2023-01-27T06:07:49;102405.06;;;3.46;100.00
59103;BME280;43999;51.660;5.616;2023-01-27T06:10:23;102401.59;;;3.46;100.00
59103;BME280;43999;51.660;5.616;2023-01-27T06:12:53;102405.91;;;3.51;100.00
59103;BME280;43999;51.660;5.616;2023-01-27T06:15:23;102409.38;;;3.46;100.00
59103;BME280;43999;51.660;5.616;2023-01-27T06:17:52;102411.97;;;3.44;100.00
59103;BME280;43999;51.660;5.616;2023-01-27T06:20:25;102417.16;;;3.47;100.00
59103;BME280;43999;51.660;5.616;2023-01-27T06:22:57;102408.50;;;3.51;100.00
59103;BME280;43999;51.660;5.616;2023-01-27T06:25:29;102416.28;;;3.53;100.00
59103;BME280;43999;51.660;5.616;2023-01-27T06:28:04;102420.59;;;3.54;100.00
59103;BME280;43999;51.660;5.616;2023-01-27T06:30:35;102415.41;;;3.49;100.00
59103;BME280;43999;51.660;5.616;2023-01-27T06:33:06;102410.25;;;3.51;100.00
59103;BME280;43999;51.660;5.616;2023-01-27T06:35:36;102409.38;;;3.47;100.00
59103;BME280;43999;51.660;5.616;2023-01-27T06:38:10;102405.06;;;3.46;100.00
59103;BME280;43999;51.660;5.616;2023-01-27T06:40:41;102411.97;;;3.46;100.00
59103;BME280;43999;51.660;5.616;2023-01-27T06:43:18;102416.28;;;3.50;100.00
59103;BME280;43999;51.660;5.616;2023-01-27T06:45:51;102407.66;;;3.57;100.00
59103;BME280;43999;51.660;5.616;2023-01-27T06:48:24;102409.38;;;3.55;100.00
59103;BME280;43999;51.660;5.616;2023-01-27T06:50:56;102411.97;;;3.55;100.00
59103;BME280;43999;51.660;5.616;2023-01-27T06:53:24;102416.28;;;3.53;100.00
59103;BME280;43999;51.660;5.616;2023-01-27T06:56:00;102420.59;;;3.55;100.00
59103;BME280;43999;51.660;5.616;2023-01-27T06:58:32;102419.75;;;3.56;100.00
59103;BME280;43999;51.660;5.616;2023-01-27T07:01:04;102421.47;;;3.57;100.00
59103;BME280;43999;51.660;5.616;2023-01-27T07:03:37;102430.13;;;3.58;100.00
59103;BME280;43999;51.660;5.616;2023-01-27T07:06:07;102431.00;;;3.63;100.00
59103;BME280;43999;51.660;5.616;2023-01-27T07:08:37;102432.72;;;3.66;100.00
59103;BME280;43999;51.660;5.616;2023-01-27T07:11:05;102436.16;;;3.63;100.00
59103;BME280;43999;51.660;5.616;2023-01-27T07:13:53;102430.97;;;3.55;100.00
59103;BME280;43999;51.660;5.616;2023-01-27T07:16:24;102430.97;;;3.58;100.00
59103;BME280;43999;51.660;5.616;2023-01-27T07:19:00;102434.44;;;3.62;100.00
59103;BME280;43999;51.660;5.616;2023-01-27T07:21:37;102430.97;;;3.60;100.00
59103;BME280;43999;51.660;5.616;2023-01-27T07:24:12;102436.16;;;3.58;100.00
59103;BME280;43999;51.660;5.616;2023-01-27T07:26:43;102439.63;;;3.59;100.00
59103;BME280;43999;51.660;5.616;2023-01-27T07:29:14;102435.31;;;3.64;100.00
59103;BME280;43999;51.660;5.616;2023-01-27T07:31:42;102439.63;;;3.62;100.00
59103;BME280;43999;51.660;5.616;2023-01-27T07:34:12;102450.88;;;3.63;100.00
59103;BME280;43999;51.660;5.616;2023-01-27T07:36:46;102455.16;;;3.65;100.00
59103;BME280;43999;51.660;5.616;2023-01-27T07:39:14;102458.66;;;3.64;100.00
59103;BME280;43999;51.660;5.616;2023-01-27T07:41:43;102457.75;;;3.59;100.00
59103;BME280;43999;51.660;5.616;2023-01-27T07:44:14;102457.75;;;3.57;100.00
59103;BME280;43999;51.660;5.616;2023-01-27T07:46:44;102464.69;;;3.60;100.00
59103;BME280;43999;51.660;5.616;2023-01-27T07:49:15;102463.84;;;3.61;100.00
59103;BME280;43999;51.660;5.616;2023-01-27T07:51:44;102462.09;;;3.65;100.00
59103;BME280;43999;51.660;5.616;2023-01-27T07:54:15;102461.25;;;3.64;100.00
59103;BME280;43999;51.660;5.616;2023-01-27T07:56:44;102467.28;;;3.62;100.00
59103;BME280;43999;51.660;5.616;2023-01-27T07:59:12;102470.72;;;3.62;100.00
59103;BME280;43999;51.660;5.616;2023-01-27T08:01:44;102477.66;;;3.63;100.00
59103;BME280;43999;51.660;5.616;2023-01-27T08:04:20;102468.13;;;3.65;100.00
59103;BME280;43999;51.660;5.616;2023-01-27T08:06:49;102466.44;;;3.64;100.00
59103;BME280;43999;51.660;5.616;2023-01-27T08:09:39;102466.44;;;3.64;100.00
59103;BME280;43999;51.660;5.616;2023-01-27T08:12:09;102473.31;;;3.68;100.00
59103;BME280;43999;51.660;5.616;2023-01-27T08:14:37;102470.72;;;3.67;100.00
59103;BME280;43999;51.660;5.616;2023-01-27T08:17:09;102474.22;;;3.72;100.00
59103;BME280;43999;51.660;5.616;2023-01-27T08:19:47;102474.22;;;3.72;100.00
59103;BME280;43999;51.660;5.616;2023-01-27T08:22:21;102476.81;;;3.73;100.00
59103;BME280;43999;51.660;5.616;2023-01-27T08:24:49;102474.22;;;3.75;100.00
59103;BME280;43999;51.660;5.616;2023-01-27T08:27:20;102475.91;;;3.74;100.00
59103;BME280;43999;51.660;5.616;2023-01-27T08:29:52;102482.00;;;3.76;100.00
59103;BME280;43999;51.660;5.616;2023-01-27T08:32:21;102485.44;;;3.80;100.00
59103;BME280;43999;51.660;5.616;2023-01-27T08:34:54;102472.47;;;3.75;100.00
59103;BME280;43999;51.660;5.616;2023-01-27T08:37:35;102482.84;;;3.83;100.00
59103;BME280;43999;51.660;5.616;2023-01-27T08:40:05;102490.63;;;3.85;100.00
59103;BME280;43999;51.660;5.616;2023-01-27T08:42:36;102498.41;;;3.82;100.00
59103;BME280;43999;51.660;5.616;2023-01-27T08:45:05;102494.97;;;3.78;100.00
59103;BME280;43999;51.660;5.616;2023-01-27T08:47:35;102507.06;;;3.88;100.00
59103;BME280;43999;51.660;5.616;2023-01-27T08:50:08;102515.72;;;3.83;100.00
59103;BME280;43999;51.660;5.616;2023-01-27T08:52:38;102505.34;;;3.84;100.00
59103;BME280;43999;51.660;5.616;2023-01-27T08:55:12;102520.91;;;3.81;100.00
59103;BME280;43999;51.660;5.616;2023-01-27T08:57:42;102515.69;;;3.78;100.00
59103;BME280;43999;51.660;5.616;2023-01-27T09:00:11;102507.91;;;3.76;100.00
59103;BME280;43999;51.660;5.616;2023-01-27T09:02:40;102512.22;;;3.77;100.00
59103;BME280;43999;51.660;5.616;2023-01-27T09:05:10;102514.84;;;3.90;100.00
59103;BME280;43999;51.660;5.616;2023-01-27T09:07:39;102514.84;;;3.90;100.00
59103;BME280;43999;51.660;5.616;2023-01-27T09:10:07;102520.91;;;3.87;100.00
59103;BME280;43999;51.660;5.616;2023-01-27T09:12:42;102524.34;;;3.89;100.00
59103;BME280;43999;51.660;5.616;2023-01-27T09:15:12;102522.63;;;4.01;100.00
59103;BME280;43999;51.660;5.616;2023-01-27T09:17:51;102520.91;;;3.93;100.00
59103;BME280;43999;51.660;5.616;2023-01-27T09:20:22;102533.00;;;3.93;100.00
59103;BME280;43999;51.660;5.616;2023-01-27T09:22:54;102532.13;;;3.88;100.00
59103;BME280;43999;51.660;5.616;2023-01-27T09:25:32;102532.13;;;3.89;100.00
59103;BME280;43999;51.660;5.616;2023-01-27T09:28:02;102536.47;;;3.93;100.00
59103;BME280;43999;51.660;5.616;2023-01-27T09:30:33;102553.75;;;3.94;100.00
59103;BME280;43999;51.660;5.616;2023-01-27T09:33:15;102550.28;;;3.92;100.00
59103;BME280;43999;51.660;5.616;2023-01-27T09:36:10;102553.75;;;3.96;100.00
59103;BME280;43999;51.660;5.616;2023-01-27T09:38:53;102540.75;;;3.90;100.00
59103;BME280;43999;51.660;5.616;2023-01-27T10:25:44;102550.31;;;4.17;100.00
59103;BME280;43999;51.660;5.616;2023-01-27T10:28:22;102554.63;;;4.18;100.00
59103;BME280;43999;51.660;5.616;2023-01-27T10:31:13;102545.13;;;4.23;100.00
59103;BME280;43999;51.660;5.616;2023-01-27T10:33:55;102557.22;;;4.24;100.00
59103;BME280;43999;51.660;5.616;2023-01-27T10:37:07;102554.63;;;4.23;100.00
59103;BME280;43999;51.660;5.616;2023-01-27T10:43:29;102554.63;;;4.12;100.00
59103;BME280;43999;51.660;5.616;2023-01-27T10:52:12;102549.41;;;4.01;100.00
59103;BME280;43999;51.660;5.616;2023-01-27T10:58:27;102539.94;;;4.03;100.00
59103;BME280;43999;51.660;5.616;2023-01-27T11:00:50;102538.19;;;4.04;100.00
59103;BME280;43999;51.660;5.616;2023-01-27T11:03:46;102546.81;;;4.06;100.00
59103;BME280;43999;51.660;5.616;2023-01-27T11:06:34;102539.94;;;4.00;100.00
59103;BME280;43999;51.660;5.616;2023-01-27T11:12:09;102535.59;;;4.10;100.00
59103;BME280;43999;51.660;5.616;2023-01-27T11:14:48;102552.91;;;4.17;100.00
59103;BME280;43999;51.660;5.616;2023-01-27T11:17:37;102544.25;;;4.20;100.00
59103;BME280;43999;51.660;5.616;2023-01-27T11:20:33;102534.75;;;4.26;100.00
59103;BME280;43999;51.660;5.616;2023-01-27T11:33:02;102532.16;;;4.29;100.00
59103;BME280;43999;51.660;5.616;2023-01-27T11:35:31;102535.59;;;4.28;100.00
59103;BME280;43999;51.660;5.616;2023-01-27T11:38:01;102522.63;;;4.31;100.00
59103;BME280;43999;51.660;5.616;2023-01-27T11:40:44;102529.56;;;4.31;100.00
59103;BME280;43999;51.660;5.616;2023-01-27T11:43:17;102530.41;;;4.28;100.00
59103;BME280;43999;51.660;5.616;2023-01-27T11:46:21;102523.47;;;4.27;100.00
59103;BME280;43999;51.660;5.616;2023-01-27T11:49:11;102525.22;;;4.38;100.00
59103;BME280;43999;51.660;5.616;2023-01-27T11:51:40;102527.81;;;4.31;100.00
59103;BME280;43999;51.660;5.616;2023-01-27T11:54:23;102534.75;;;4.36;100.00
59103;BME280;43999;51.660;5.616;2023-01-27T11:56:52;102528.66;;;4.37;100.00
59103;BME280;43999;51.660;5.616;2023-01-27T11:59:32;102531.25;;;4.27;100.00
59103;BME280;43999;51.660;5.616;2023-01-27T12:05:17;102536.44;;;4.24;100.00
59103;BME280;43999;51.660;5.616;2023-01-27T12:08:05;102531.25;;;4.23;100.00
59103;BME280;43999;51.660;5.616;2023-01-27T12:10:39;102518.28;;;4.26;100.00
59103;BME280;43999;51.660;5.616;2023-01-27T12:13:31;102520.88;;;4.21;100.00
59103;BME280;43999;51.660;5.616;2023-01-27T12:16:01;102523.47;;;4.18;100.00
59103;BME280;43999;51.660;5.616;2023-01-27T12:18:35;102517.44;;;4.19;100.00
59103;BME280;43999;51.660;5.616;2023-01-27T12:21:13;102528.66;;;4.23;100.00
59103;BME280;43999;51.660;5.616;2023-01-27T12:23:51;102519.19;;;4.26;100.00
59103;BME280;43999;51.660;5.616;2023-01-27T12:26:47;102507.06;;;4.30;100.00
59103;BME280;43999;51.660;5.616;2023-01-27T12:29:43;102503.59;;;4.39;100.00
59103;BME280;43999;51.660;5.616;2023-01-27T12:32:50;102507.91;;;4.43;100.00
59103;BME280;43999;51.660;5.616;2023-01-27T12:35:37;102505.28;;;4.52;100.00
59103;BME280;43999;51.660;5.616;2023-01-27T12:38:22;102498.38;;;4.56;100.00
59103;BME280;43999;51.660;5.616;2023-01-27T12:41:12;102499.22;;;4.59;100.00
59103;BME280;43999;51.660;5.616;2023-01-27T12:44:06;102496.63;;;4.56;100.00
59103;BME280;43999;51.660;5.616;2023-01-27T12:46:53;102498.38;;;4.53;100.00
59103;BME280;43999;51.660;5.616;2023-01-27T12:49:33;102493.19;;;4.46;100.00
59103;BME280;43999;51.660;5.616;2023-01-27T12:52:14;102494.06;;;4.48;100.00
59103;BME280;43999;51.660;5.616;2023-01-27T12:54:51;102484.50;;;4.52;100.00
59103;BME280;43999;51.660;5.616;2023-01-27T12:57:21;102490.59;;;4.56;100.00
59103;BME280;43999;51.660;5.616;2023-01-27T12:59:56;102488.84;;;4.52;100.00
59103;BME280;43999;51.660;5.616;2023-01-27T13:02:43;102486.25;;;4.56;100.00
59103;BME280;43999;51.660;5.616;2023-01-27T13:05:15;102487.09;;;4.61;100.00
59103;BME280;43999;51.660;5.616;2023-01-27T13:08:26;102487.09;;;4.58;100.00
59103;BME280;43999;51.660;5.616;2023-01-27T13:11:29;102485.38;;;4.62;100.00
59103;BME280;43999;51.660;5.616;2023-01-27T13:14:01;102482.78;;;4.66;100.00
59103;BME280;43999;51.660;5.616;2023-01-27T13:16:33;102481.88;;;4.67;100.00
59103;BME280;43999;51.660;5.616;2023-01-27T13:19:39;102481.88;;;4.66;100.00
59103;BME280;43999;51.660;5.616;2023-01-27T13:22:17;102478.41;;;4.72;100.00
59103;BME280;43999;51.660;5.616;2023-01-27T13:24:55;102483.59;;;4.76;100.00
59103;BME280;43999;51.660;5.616;2023-01-27T13:27:39;102482.72;;;4.80;100.00
59103;BME280;43999;51.660;5.616;2023-01-27T13:30:37;102483.53;;;4.92;100.00
59103;BME280;43999;51.660;5.616;2023-01-27T13:33:45;102478.34;;;4.89;100.00
59103;BME280;43999;51.660;5.616;2023-01-27T13:43:27;102491.31;;;4.96;100.00
59103;BME280;43999;51.660;5.616;2023-01-27T13:46:29;102488.75;;;4.92;100.00
59103;BME280;43999;51.660;5.616;2023-01-27T13:51:50;102483.56;;;4.87;100.00
59103;BME280;43999;51.660;5.616;2023-01-27T13:54:23;102477.53;;;4.83;100.00
59103;BME280;43999;51.660;5.616;2023-01-27T13:57:38;102480.97;;;4.82;100.00
59103;BME280;43999;51.660;5.616;2023-01-27T14:00:21;102484.44;;;4.78;100.00
59103;BME280;43999;51.660;5.616;2023-01-27T14:15:26;102490.47;;;4.94;100.00
59103;BME280;43999;51.660;5.616;2023-01-27T14:18:31;102490.50;;;4.88;100.00
59103;BME280;43999;51.660;5.616;2023-01-27T14:27:49;102491.38;;;4.79;100.00
59103;BME280;43999;51.660;5.616;2023-01-27T14:30:28;102494.81;;;4.86;100.00
59103;BME280;43999;51.660;5.616;2023-01-27T14:33:20;102502.63;;;4.83;100.00
59103;BME280;43999;51.660;5.616;2023-01-27T14:41:51;102512.19;;;4.70;100.00
59103;BME280;43999;51.660;5.616;2023-01-27T14:48:07;102516.53;;;4.70;100.00
59103;BME280;43999;51.660;5.616;2023-01-27T14:54:32;102509.59;;;4.65;100.00
59103;BME280;43999;51.660;5.616;2023-01-27T15:04:11;102527.78;;;4.64;100.00
59103;BME280;43999;51.660;5.616;2023-01-27T15:07:32;102529.53;;;4.56;100.00
59103;BME280;43999;51.660;5.616;2023-01-27T15:10:29;102539.94;;;4.48;100.00
59103;BME280;43999;51.660;5.616;2023-01-27T15:26:27;102557.22;;;4.24;100.00
59103;BME280;43999;51.660;5.616;2023-01-27T15:28:57;102554.63;;;4.24;100.00
59103;BME280;43999;51.660;5.616;2023-01-27T15:31:28;102565.88;;;4.25;100.00
59103;BME280;43999;51.660;5.616;2023-01-27T15:36:35;102558.09;;;4.16;100.00
59103;BME280;43999;51.660;5.616;2023-01-27T15:39:19;102561.53;;;4.11;100.00
59103;BME280;43999;51.660;5.616;2023-01-27T15:45:01;102566.72;;;4.04;100.00
59103;BME280;43999;51.660;5.616;2023-01-27T15:47:33;102565.88;;;4.03;100.00
59103;BME280;43999;51.660;5.616;2023-01-27T15:50:22;102570.16;;;4.00;100.00
59103;BME280;43999;51.660;5.616;2023-01-27T15:53:02;102560.66;;;3.94;100.00
59103;BME280;43999;51.660;5.616;2023-01-27T15:55:37;102571.03;;;3.97;100.00
59103;BME280;43999;51.660;5.616;2023-01-27T16:00:54;102571.91;;;4.01;100.00
59103;BME280;43999;51.660;5.616;2023-01-27T16:03:39;102569.31;;;3.99;100.00